Time;durP1;ratioP1;P1;durP2;ratioP2;P2;SDS_P1;SDS_P2;PMS_P1;PMS_P2;Temp;Humidity;BMP_temperature;BMP_pressure;BME280_temperature;BME280_humidity;BME280_pressure;Samples;Min_cycle;Max_cycle;Signal;HPM_P1;HPM_P2
2023/04/12 00:00:54;;;;;;;5.68;1.15;;;;;;;6.28;72.58;98050.19;4977351;28;20058;-57
2023/04/12 00:03:21;;;;;;;5.43;1.23;;;;;;;6.24;71.52;98065.66;4982635;28;20455;-54
2023/04/12 00:05:53;;;;;;;2.65;0.73;;;;;;;6.26;72.11;98063.94;4983583;28;20050;-58
2023/04/12 00:08:32;;;;;;;4.95;0.70;;;;;;;6.28;71.76;98075.03;4974650;28;20109;-53
2023/04/12 00:11:00;;;;;;;3.70;1.15;;;;;;;6.21;71.88;98068.31;4980318;28;20051;-53
2023/04/12 00:13:27;;;;;;;3.70;0.63;;;;;;;6.27;70.99;98068.19;4981838;28;20101;-54
2023/04/12 00:15:53;;;;;;;4.95;0.75;;;;;;;6.27;71.46;98073.34;4977534;28;20105;-53
2023/04/12 00:18:23;;;;;;;11.00;0.77;;;;;;;6.22;71.47;98070.00;4984669;28;20776;-56
2023/04/12 00:20:51;;;;;;;4.75;0.75;;;;;;;6.25;70.97;98070.78;4978131;28;20049;-55
2023/04/12 00:23:18;;;;;;;3.05;0.70;;;;;;;6.24;71.04;98078.53;4980756;28;20470;-52
2023/04/12 00:25:45;;;;;;;12.75;1.13;;;;;;;6.25;71.73;98075.09;4980020;28;20078;-53
2023/04/12 00:28:11;;;;;;;5.03;0.80;;;;;;;6.25;71.77;98075.09;4981963;28;20108;-54
2023/04/12 00:30:40;;;;;;;2.88;0.77;;;;;;;6.20;71.49;98074.31;4990134;28;20096;-53
2023/04/12 00:33:07;;;;;;;7.20;0.93;;;;;;;6.19;70.99;98075.19;4983866;28;20460;-54
2023/04/12 00:35:33;;;;;;;5.30;0.50;;;;;;;6.16;71.84;98066.69;4982760;28;20661;-55
2023/04/12 00:38:02;;;;;;;5.00;1.08;;;;;;;6.15;72.32;98075.25;4985996;28;20052;-52
2023/04/12 00:40:29;;;;;;;5.03;1.33;;;;;;;6.12;72.31;98059.88;4985253;28;20097;-56
2023/04/12 00:42:56;;;;;;;4.47;1.17;;;;;;;6.09;72.45;98054.81;4985737;28;20080;-54
2023/04/12 00:45:23;;;;;;;10.00;1.88;;;;;;;6.06;72.36;98070.25;4981645;28;20138;-56
2023/04/12 00:47:49;;;;;;;4.32;0.80;;;;;;;6.06;71.36;98066.84;4984280;28;20105;-53
2023/04/12 00:50:16;;;;;;;10.82;1.25;;;;;;;6.02;71.92;98073.72;4989276;28;20042;-53
2023/04/12 00:52:43;;;;;;;2.15;1.10;;;;;;;6.00;72.19;98070.31;4982651;28;20149;-56
2023/04/12 00:55:10;;;;;;;2.47;0.80;;;;;;;5.96;72.17;98078.94;4988975;28;20097;-50
2023/04/12 00:57:39;;;;;;;2.95;1.08;;;;;;;5.91;72.03;98077.31;4986968;28;20077;-53
2023/04/12 01:00:12;;;;;;;11.93;1.05;;;;;;;5.92;73.10;98079.00;4982918;28;20054;-54
2023/04/12 01:02:49;;;;;;;5.05;0.60;;;;;;;5.89;72.09;98078.22;4983480;28;20082;-55
2023/04/12 01:05:20;;;;;;;3.03;0.65;;;;;;;5.89;72.56;98084.22;4986658;28;20082;-58
2023/04/12 01:08:03;;;;;;;4.47;1.17;;;;;;;5.82;73.10;98077.47;4985946;28;20416;-54
2023/04/12 01:10:56;;;;;;;6.07;0.95;;;;;;;5.78;72.56;98078.38;4984228;28;20410;-55
2023/04/12 01:13:33;;;;;;;5.63;1.23;;;;;;;5.78;72.84;98083.53;4980942;28;20088;-55
2023/04/12 01:16:06;;;;;;;;;;;;;;;5.71;72.05;98094.75;4986244;28;20042;-52
2023/04/12 01:18:39;;;;;;;4.05;0.68;;;;;;;5.71;72.87;98085.31;4986902;28;19928;-54
2023/04/12 01:21:12;;;;;;;3.15;0.63;;;;;;;5.72;71.71;98091.31;4984368;28;20077;-53
2023/04/12 01:24:18;;;;;;;4.35;1.40;;;;;;;5.66;72.30;98098.25;4988193;28;20046;-52
2023/04/12 01:26:47;;;;;;;6.22;0.85;;;;;;;5.66;72.01;98103.38;5001057;28;20560;-51
2023/04/12 01:29:16;;;;;;;7.25;0.60;;;;;;;5.65;72.44;98100.81;4990156;28;20034;-54
2023/04/12 01:34:27;;;;;;;8.55;0.90;;;;;;;5.64;72.09;98104.28;5070609;27;20384;-54
2023/04/12 01:36:57;;;;;;;3.17;0.75;;;;;;;5.64;71.73;98110.25;5039353;28;20068;-57
2023/04/12 01:39:25;;;;;;;2.35;0.40;;;;;;;5.63;72.03;98107.69;5047661;28;20048;-56
2023/04/12 01:41:52;;;;;;;2.45;0.52;;;;;;;5.68;72.62;98116.19;5057974;28;20106;-56
2023/04/12 01:44:19;;;;;;;8.30;1.08;;;;;;;5.73;72.75;98118.69;5056118;28;20049;-55
2023/04/12 01:46:47;;;;;;;3.85;0.73;;;;;;;5.68;72.94;98110.19;5060353;28;20044;-51
2023/04/12 01:49:16;;;;;;;4.20;0.95;;;;;;;5.71;71.90;98111.00;5060977;28;20041;-54
2023/04/12 01:52:08;;;;;;;10.73;0.73;;;;;;;5.66;72.44;98098.25;5060043;28;20048;-49
2023/04/12 01:54:38;;;;;;;2.78;0.47;;;;;;;5.60;72.25;98106.00;5070713;28;20178;-55
2023/04/12 01:57:07;;;;;;;3.13;1.08;;;;;;;5.56;71.25;98112.06;5053307;28;20441;-54
2023/04/12 01:59:38;;;;;;;0.85;0.25;;;;;;;5.49;72.28;98113.00;5057963;28;20053;-54
2023/04/12 02:02:07;;;;;;;4.10;0.45;;;;;;;5.46;71.58;98107.91;5056694;28;20710;-53
2023/04/12 02:04:35;;;;;;;3.15;0.68;;;;;;;5.42;72.16;98103.69;5054696;28;20080;-50
2023/04/12 02:07:02;;;;;;;1.38;0.30;;;;;;;5.34;72.42;98096.09;5056421;28;20115;-56
2023/04/12 02:09:29;;;;;;;2.60;0.85;;;;;;;5.31;72.36;98097.00;5059400;28;20106;-51
2023/04/12 02:11:56;;;;;;;2.03;0.50;;;;;;;5.31;72.39;98097.00;5056419;28;20091;-54
2023/04/12 02:14:22;;;;;;;4.60;0.45;;;;;;;5.28;71.39;98097.03;5060625;28;20045;-53
2023/04/12 02:16:49;;;;;;;5.22;0.88;;;;;;;5.23;71.97;98088.50;5057842;28;20049;-56
2023/04/12 02:19:16;;;;;;;0.60;0.50;;;;;;;5.19;72.17;98087.72;5051974;28;20045;-57
2023/04/12 02:21:44;;;;;;;1.02;0.88;;;;;;;5.13;71.29;98083.50;5052245;28;20045;-54
2023/04/12 02:24:11;;;;;;;3.38;0.85;;;;;;;5.10;71.48;98078.41;5052609;28;20056;-51
2023/04/12 02:26:38;;;;;;;5.88;0.57;;;;;;;5.06;72.25;98083.63;5057431;28;20049;-53
2023/04/12 02:29:07;;;;;;;1.23;0.50;;;;;;;5.00;72.10;98071.72;5054413;28;20491;-51
2023/04/12 02:31:35;;;;;;;2.13;0.52;;;;;;;4.96;72.24;98075.19;5047606;28;20516;-55
2023/04/12 02:34:02;;;;;;;1.63;0.45;;;;;;;4.91;72.20;98082.06;5035209;28;20139;-50
2023/04/12 02:36:29;;;;;;;4.22;0.55;;;;;;;4.86;72.55;98076.97;5054076;28;20070;-52
2023/04/12 02:38:55;;;;;;;5.43;0.38;;;;;;;4.81;72.37;98074.50;5067523;28;20172;-54
2023/04/12 02:41:22;;;;;;;2.35;0.77;;;;;;;4.78;72.55;98082.22;5058629;28;20048;-50
2023/04/12 02:43:49;;;;;;;2.65;0.28;;;;;;;4.73;72.52;98082.25;5054029;28;20467;-49
2023/04/12 02:46:20;;;;;;;8.13;0.80;;;;;;;4.69;72.11;98069.50;5037148;28;20173;-50
2023/04/12 02:48:48;;;;;;;3.78;0.50;;;;;;;4.66;72.39;98066.97;5044684;28;20055;-54
2023/04/12 02:51:15;;;;;;;0.88;0.43;;;;;;;4.62;71.98;98064.44;5043193;28;20065;-52
2023/04/12 02:53:41;;;;;;;3.40;0.73;;;;;;;4.60;72.57;98061.00;5046108;28;20040;-52
2023/04/12 02:56:08;;;;;;;5.00;0.45;;;;;;;4.59;72.45;98063.63;5045080;28;20153;-54
2023/04/12 02:58:35;;;;;;;4.70;0.50;;;;;;;4.56;72.47;98061.91;5045473;28;20107;-52
2023/04/12 03:01:06;;;;;;;4.75;0.85;;;;;;;4.51;72.71;98058.56;5046835;28;20064;-56
2023/04/12 03:03:34;;;;;;;1.23;0.75;;;;;;;4.51;72.08;98058.56;5043376;28;20051;-47
2023/04/12 03:06:01;;;;;;;1.25;0.40;;;;;;;4.47;72.47;98056.88;5045804;28;20049;-54
2023/04/12 03:08:28;;;;;;;4.45;0.70;;;;;;;4.46;72.64;98044.94;5046106;28;20076;-50
2023/04/12 03:10:55;;;;;;;3.90;0.50;;;;;;;4.42;72.17;98038.16;5039636;28;20126;-56
2023/04/12 03:13:22;;;;;;;2.78;0.47;;;;;;;4.37;72.93;98036.50;5044978;28;20098;-54
2023/04/12 03:15:53;;;;;;;2.38;0.73;;;;;;;4.32;72.49;98033.09;5036204;28;20468;-57
2023/04/12 03:18:20;;;;;;;5.13;1.23;;;;;;;4.29;72.68;98022.88;5020535;28;20064;-57
2023/04/12 03:20:47;;;;;;;6.35;0.82;;;;;;;4.28;72.37;98028.88;5020710;28;20493;-56
2023/04/12 03:23:13;;;;;;;3.03;0.50;;;;;;;4.28;72.23;98026.31;5025123;28;20041;-54
2023/04/12 03:25:41;;;;;;;1.00;0.40;;;;;;;4.27;72.82;98032.31;5025390;28;20045;-53
2023/04/12 03:28:07;;;;;;;3.65;0.63;;;;;;;4.24;72.58;98027.19;5024112;28;20383;-50
2023/04/12 03:30:34;;;;;;;4.85;0.57;;;;;;;4.19;72.13;98023.84;5028121;28;20049;-57
2023/04/12 03:33:01;;;;;;;6.32;0.90;;;;;;;4.16;72.36;98016.19;5020061;28;20414;-52
2023/04/12 03:35:27;;;;;;;3.00;0.60;;;;;;;4.12;72.33;98012.78;5044925;28;20099;-50
2023/04/12 03:37:54;;;;;;;4.47;0.82;;;;;;;4.07;72.32;98015.41;5044664;28;20049;-52
2023/04/12 03:40:21;;;;;;;0.90;0.50;;;;;;;4.03;72.52;98018.88;5041254;28;20178;-49
2023/04/12 03:42:47;;;;;;;2.10;0.47;;;;;;;3.98;72.74;98012.91;5042381;28;20579;-52
2023/04/12 03:45:14;;;;;;;2.72;0.65;;;;;;;3.91;72.65;98012.13;5043768;28;20072;-54
2023/04/12 03:47:41;;;;;;;3.63;0.43;;;;;;;3.93;72.85;98019.78;5038728;28;20136;-47
2023/04/12 03:50:09;;;;;;;2.20;0.93;;;;;;;3.92;72.90;98023.22;5039872;28;20041;-53
2023/04/12 03:52:38;;;;;;;5.90;0.85;;;;;;;3.92;72.54;98005.31;5049988;28;20048;-51
2023/04/12 03:55:06;;;;;;;8.15;1.25;;;;;;;3.91;72.75;98016.38;5041624;28;20136;-54
2023/04/12 03:57:33;;;;;;;3.25;0.40;;;;;;;3.88;72.90;98016.44;5035068;28;20049;-56
2023/04/12 04:00:00;;;;;;;1.30;0.50;;;;;;;3.86;73.03;98014.72;5021384;28;20045;-51
2023/04/12 04:02:27;;;;;;;6.93;1.70;;;;;;;3.84;72.98;98008.78;5043864;28;20358;-50
2023/04/12 04:04:54;;;;;;;3.85;0.73;;;;;;;3.80;73.21;98012.22;5025554;28;20417;-52
2023/04/12 04:07:21;;;;;;;5.07;1.23;;;;;;;3.82;72.67;98009.66;5021560;28;20084;-53
2023/04/12 04:09:48;;;;;;;6.43;1.67;;;;;;;3.81;72.61;98011.34;5022936;28;20120;-55
2023/04/12 04:12:15;;;;;;;3.78;1.63;;;;;;;3.79;73.28;98007.97;5024121;28;20075;-51
2023/04/12 04:14:42;;;;;;;3.40;0.98;;;;;;;3.79;73.33;98007.09;5025149;28;20124;-54
2023/04/12 04:17:09;;;;;;;4.20;0.95;;;;;;;3.80;73.69;98009.66;5018422;28;20077;-51
2023/04/12 04:19:36;;;;;;;2.97;0.70;;;;;;;3.80;73.33;98007.09;5022117;28;20053;-50
2023/04/12 04:22:03;;;;;;;3.55;0.52;;;;;;;3.81;73.10;98000.25;5019383;28;20056;-55
2023/04/12 04:24:30;;;;;;;5.28;1.10;;;;;;;3.80;73.20;98004.53;5026837;28;20132;-51
2023/04/12 04:26:57;;;;;;;5.47;0.80;;;;;;;3.79;73.21;98002.84;5042764;28;20098;-53
2023/04/12 04:29:24;;;;;;;6.00;0.73;;;;;;;3.79;73.58;98002.84;5019065;28;20067;-51
2023/04/12 04:31:52;;;;;;;2.78;0.90;;;;;;;3.77;73.19;98002.00;5020330;28;20592;-52
2023/04/12 04:34:20;;;;;;;10.23;1.17;;;;;;;3.77;73.62;97994.31;5020899;28;20326;-53
2023/04/12 04:36:47;;;;;;;2.90;1.08;;;;;;;3.75;73.21;98001.16;5020268;28;20914;-50
2023/04/12 04:39:14;;;;;;;2.95;0.77;;;;;;;3.75;73.09;98000.31;5020449;28;20076;-53
2023/04/12 04:41:41;;;;;;;3.63;0.50;;;;;;;3.74;73.52;98004.56;5019829;28;20089;-53
2023/04/12 04:44:09;;;;;;;8.98;1.15;;;;;;;3.73;72.77;98000.31;5043532;28;20063;-51
2023/04/12 04:46:36;;;;;;;4.47;1.50;;;;;;;3.72;73.53;98008.88;5025912;28;20612;-53
2023/04/12 04:49:04;;;;;;;1.65;0.65;;;;;;;3.70;73.24;98008.88;5031736;28;20064;-47
2023/04/12 04:51:31;;;;;;;1.42;0.63;;;;;;;3.69;73.48;98011.47;5045431;28;20452;-51
2023/04/12 04:53:59;;;;;;;3.55;0.82;;;;;;;3.67;73.14;98005.47;5045931;28;20084;-52
2023/04/12 04:56:25;;;;;;;0.63;0.32;;;;;;;3.65;73.27;97996.97;5023501;28;20050;-50
2023/04/12 04:58:52;;;;;;;1.65;0.63;;;;;;;3.65;72.95;97994.41;5027189;28;20053;-53
2023/04/12 05:01:26;;;;;;;3.42;0.40;;;;;;;3.62;73.02;97984.19;5015061;28;20111;-51
2023/04/12 05:03:54;;;;;;;1.98;0.88;;;;;;;3.62;73.25;97989.31;5020730;28;20045;-51
2023/04/12 05:06:22;;;;;;;0.85;0.30;;;;;;;3.63;73.69;97985.88;5023036;28;20059;-51
2023/04/12 05:08:49;;;;;;;4.13;0.70;;;;;;;3.62;72.99;97976.53;5016535;28;20073;-51
2023/04/12 05:11:15;;;;;;;6.43;1.10;;;;;;;3.59;72.92;97970.53;5019292;28;20107;-51
2023/04/12 05:13:42;;;;;;;2.40;0.85;;;;;;;3.59;73.08;97970.53;5037054;28;20040;-50
2023/04/12 05:16:10;;;;;;;8.40;0.45;;;;;;;3.60;73.74;97972.28;5028414;28;20045;-52
2023/04/12 05:18:37;;;;;;;1.10;0.32;;;;;;;3.62;72.87;97972.25;5026898;28;20507;-52
2023/04/12 05:21:04;;;;;;;0.35;0.35;;;;;;;3.62;72.78;97967.13;5041424;28;20095;-55
2023/04/12 05:23:36;;;;;;;1.48;0.55;;;;;;;3.64;73.02;97972.25;5016692;28;20069;-54
2023/04/12 05:26:03;;;;;;;2.13;0.70;;;;;;;3.64;72.85;97982.50;5019860;28;20050;-51
2023/04/12 05:28:30;;;;;;;3.17;1.65;;;;;;;3.64;72.95;97977.38;5035960;28;20550;-56
2023/04/12 05:30:57;;;;;;;3.78;1.50;;;;;;;3.65;72.85;97985.00;5032170;28;20502;-56
2023/04/12 05:33:23;;;;;;;3.55;1.52;;;;;;;3.64;73.56;97982.50;5023748;28;20049;-55
2023/04/12 05:35:50;;;;;;;7.50;1.15;;;;;;;3.64;73.35;97982.50;5020134;28;20493;-58
2023/04/12 05:38:17;;;;;;;3.83;0.90;;;;;;;3.65;73.37;97989.31;5021331;28;20049;-53
2023/04/12 05:40:43;;;;;;;3.95;1.38;;;;;;;3.65;73.13;97973.94;5023776;28;20041;-55
2023/04/12 05:43:11;;;;;;;7.53;1.38;;;;;;;3.66;73.37;97975.63;5035952;28;24196;-52
2023/04/12 05:45:40;;;;;;;2.60;1.23;;;;;;;3.66;73.78;97973.94;5033265;28;20049;-54
2023/04/12 05:48:07;;;;;;;1.05;0.68;;;;;;;3.67;73.65;97972.19;5015731;28;20124;-50
2023/04/12 05:50:34;;;;;;;2.00;0.80;;;;;;;3.64;73.85;97962.00;5023649;28;20493;-53
2023/04/12 05:53:01;;;;;;;1.45;0.60;;;;;;;3.68;74.13;97966.25;5018369;28;20055;-51
2023/04/12 05:55:28;;;;;;;1.88;0.82;;;;;;;3.71;73.73;97958.50;5022447;28;20571;-53
2023/04/12 05:57:56;;;;;;;1.58;0.63;;;;;;;3.72;74.30;97957.66;5016498;28;20493;-50
2023/04/12 06:00:23;;;;;;;1.42;0.98;;;;;;;3.77;74.81;97948.22;5017174;28;20081;-54
2023/04/12 06:02:51;;;;;;;3.97;0.90;;;;;;;3.80;74.81;97942.22;5018239;28;20135;-48
2023/04/12 06:05:18;;;;;;;3.03;1.02;;;;;;;3.86;74.65;97943.00;5024278;28;20072;-51
2023/04/12 06:07:46;;;;;;;1.55;0.40;;;;;;;3.86;75.28;97942.16;5022476;28;20045;-53
2023/04/12 06:10:15;;;;;;;1.48;0.52;;;;;;;3.95;74.55;97941.25;5035478;28;20515;-54
2023/04/12 06:12:43;;;;;;;2.08;0.57;;;;;;;3.92;75.85;97934.41;5043589;28;20179;-54
2023/04/12 06:15:10;;;;;;;2.15;0.52;;;;;;;3.98;75.22;97936.94;5044972;28;20106;-48
2023/04/12 06:17:37;;;;;;;0.90;0.77;;;;;;;3.97;75.36;97932.69;5045299;28;20049;-51
2023/04/12 06:20:08;;;;;;;2.05;0.47;;;;;;;4.01;74.86;97943.72;5046264;28;20075;-51
2023/04/12 06:22:36;;;;;;;1.10;0.38;;;;;;;3.98;75.25;97929.25;5048786;28;20057;-55
2023/04/12 06:25:03;;;;;;;1.55;0.60;;;;;;;3.98;75.33;97946.31;5046480;28;20080;-53
2023/04/12 06:27:30;;;;;;;0.50;0.35;;;;;;;3.98;74.87;97941.19;5036113;28;20095;-50
2023/04/12 06:29:57;;;;;;;0.35;0.20;;;;;;;3.99;74.47;97943.75;5024241;28;20188;-54
2023/04/12 06:32:23;;;;;;;1.08;0.50;;;;;;;3.98;74.83;97931.81;5019186;28;20073;-50
2023/04/12 06:34:52;;;;;;;0.80;0.38;;;;;;;4.02;74.64;97934.34;5017536;28;20485;-52
2023/04/12 06:37:20;;;;;;;0.35;0.25;;;;;;;4.02;74.65;97927.47;5017436;28;20505;-54
2023/04/12 06:39:47;;;;;;;1.33;0.30;;;;;;;4.04;74.50;97930.88;5024794;28;20102;-54
2023/04/12 06:42:14;;;;;;;0.25;0.25;;;;;;;4.09;74.75;97918.88;5032868;28;20495;-55
2023/04/12 06:44:41;;;;;;;0.60;0.60;;;;;;;4.13;74.23;97929.09;5025552;28;20060;-51
2023/04/12 06:47:08;;;;;;;0.68;0.60;;;;;;;4.21;75.16;97917.03;5044140;28;20497;-54
2023/04/12 06:49:35;;;;;;;0.45;0.40;;;;;;;4.31;74.51;97923.75;5022925;28;20050;-53
2023/04/12 06:52:01;;;;;;;3.13;0.60;;;;;;;4.37;75.32;97921.16;5020298;28;20054;-52
2023/04/12 06:54:28;;;;;;;0.63;0.25;;;;;;;4.49;75.03;97922.69;5022799;28;20562;-54
2023/04/12 06:56:56;;;;;;;0.73;0.50;;;;;;;5.14;75.05;97915.81;5023834;28;20512;-49
2023/04/12 06:59:23;;;;;;;0.98;0.30;;;;;;;5.92;72.99;97914.53;5040401;28;20644;-58
2023/04/12 07:01:49;;;;;;;1.23;0.50;;;;;;;6.52;72.35;97908.31;5045105;28;20067;-48
2023/04/12 07:04:16;;;;;;;0.30;0.30;;;;;;;6.94;71.99;97900.56;5044298;28;20127;-54
2023/04/12 07:06:43;;;;;;;0.80;0.55;;;;;;;7.47;71.20;97898.47;5043480;28;20076;-55
2023/04/12 07:09:09;;;;;;;5.88;1.30;;;;;;;7.83;69.72;97894.97;5044177;28;20127;-52
2023/04/12 07:11:36;;;;;;;3.80;1.23;;;;;;;7.86;68.74;97889.75;5043861;28;20080;-51
2023/04/12 07:14:03;;;;;;;1.17;0.52;;;;;;;7.61;68.07;97890.41;5024443;28;20044;-53
2023/04/12 07:16:31;;;;;;;1.02;0.30;;;;;;;7.42;68.36;97885.69;5024174;28;20460;-53
2023/04/12 07:18:59;;;;;;;2.95;0.60;;;;;;;7.56;67.59;97876.75;5020547;28;20057;-56
2023/04/12 07:21:26;;;;;;;1.98;0.50;;;;;;;7.64;65.92;97880.03;5022013;28;20046;-53
2023/04/12 07:23:54;;;;;;;5.18;1.20;;;;;;;8.21;67.38;97880.19;5018014;28;20048;-53
2023/04/12 07:26:21;;;;;;;3.17;0.40;;;;;;;8.84;66.79;97875.84;5039191;28;20050;-53
2023/04/12 07:28:48;;;;;;;0.35;0.30;;;;;;;9.34;65.71;97882.91;5022216;28;20054;-53
2023/04/12 07:31:14;;;;;;;1.20;0.32;;;;;;;9.66;64.18;97846.53;5035823;28;20578;-53
2023/04/12 07:33:41;;;;;;;1.27;0.20;;;;;;;9.95;63.36;97862.78;5037834;28;20045;-51
2023/04/12 07:36:10;;;;;;;1.20;0.30;;;;;;;10.42;62.51;97850.75;5016727;28;20092;-53
2023/04/12 07:38:36;;;;;;;1.23;0.40;;;;;;;10.94;62.79;97841.88;5020566;28;20049;-54
2023/04/12 07:41:03;;;;;;;2.20;0.52;;;;;;;11.25;61.54;97840.66;5019246;28;20409;-53
2023/04/12 07:43:30;;;;;;;1.75;0.43;;;;;;;11.55;61.46;97829.91;5021579;28;20053;-56
2023/04/12 07:45:57;;;;;;;2.10;0.20;;;;;;;11.80;60.12;97820.25;5023186;28;20103;-50
2023/04/12 07:48:23;;;;;;;0.82;0.45;;;;;;;11.96;58.26;97830.78;5022135;28;20046;-55
2023/04/12 07:50:50;;;;;;;2.67;0.68;;;;;;;12.06;57.21;97832.09;5018758;28;20672;-51
2023/04/12 07:53:22;;;;;;;0.90;0.38;;;;;;;12.19;56.91;97823.75;5022050;28;20527;-58
2023/04/12 07:55:49;;;;;;;0.57;0.13;;;;;;;12.38;56.75;97828.09;5018861;28;20045;-55
2023/04/12 07:58:16;;;;;;;4.38;1.05;;;;;;;12.46;56.63;97839.81;5020894;28;20053;-54
2023/04/12 08:00:44;;;;;;;2.70;0.70;;;;;;;12.72;54.91;97834.31;5022737;28;20111;-56
2023/04/12 08:03:11;;;;;;;5.05;0.25;;;;;;;12.87;55.49;97837.13;5013873;28;20128;-57
2023/04/12 08:05:39;;;;;;;1.35;0.40;;;;;;;13.11;54.74;97838.50;5019394;28;20049;-55
2023/04/12 08:08:08;;;;;;;2.38;0.20;;;;;;;13.10;54.07;97844.63;5022526;28;20055;-58
2023/04/12 08:10:36;;;;;;;1.55;0.28;;;;;;;13.06;53.47;97821.47;5026949;28;20084;-57
2023/04/12 08:13:04;;;;;;;3.47;1.02;;;;;;;13.04;53.52;97826.72;5021925;28;20152;-52
2023/04/12 08:15:30;;;;;;;1.70;0.40;;;;;;;12.94;54.93;97828.94;5022911;28;20085;-53
2023/04/12 08:17:57;;;;;;;0.85;0.60;;;;;;;12.67;53.68;97810.34;5023018;28;20128;-52
2023/04/12 08:20:24;;;;;;;1.60;0.47;;;;;;;12.59;53.66;97821.91;5023106;28;20049;-54
2023/04/12 08:22:53;;;;;;;2.38;0.40;;;;;;;12.68;54.16;97812.00;5022076;28;20548;-56
2023/04/12 08:25:20;;;;;;;1.38;0.35;;;;;;;12.72;54.91;97814.41;5020133;28;20575;-55
2023/04/12 08:27:49;;;;;;;3.80;0.30;;;;;;;12.91;54.45;97812.66;5021935;28;20037;-57
2023/04/12 08:30:16;;;;;;;2.67;0.55;;;;;;;13.05;53.40;97797.25;5020336;28;20057;-51
2023/04/12 08:32:43;;;;;;;2.08;0.88;;;;;;;13.34;54.31;97794.13;5016592;28;20053;-54
2023/04/12 08:35:10;;;;;;;0.82;0.30;;;;;;;13.47;51.81;97799.53;5033049;28;20132;-57
2023/04/12 08:37:37;;;;;;;0.75;0.45;;;;;;;13.87;52.58;97797.50;5025578;28;20049;-56
2023/04/12 08:40:06;;;;;;;0.98;0.60;;;;;;;14.03;51.88;97791.50;5018981;28;20386;-55
2023/04/12 08:42:36;;;;;;;3.05;0.70;;;;;;;14.08;51.00;97776.47;5016744;28;20446;-55
2023/04/12 08:45:05;;;;;;;2.05;0.22;;;;;;;14.23;50.61;97779.16;5023152;28;20072;-58
2023/04/12 08:47:33;;;;;;;1.30;0.28;;;;;;;14.17;50.13;97776.88;5035210;28;20140;-55
2023/04/12 08:50:01;;;;;;;0.90;0.32;;;;;;;14.26;50.16;97771.19;5015068;28;20127;-56
2023/04/12 08:52:28;;;;;;;1.60;0.73;;;;;;;14.37;49.53;97763.63;5013643;28;20409;-56
2023/04/12 08:54:55;;;;;;;1.42;0.30;;;;;;;14.08;48.22;97750.44;5011883;28;20048;-56
2023/04/12 08:57:22;;;;;;;1.20;0.30;;;;;;;14.07;48.95;97756.56;5016818;28;20049;-55
2023/04/12 08:59:49;;;;;;;2.17;0.90;;;;;;;13.74;49.25;97753.09;5010769;28;20145;-57
2023/04/12 09:02:16;;;;;;;3.08;0.50;;;;;;;13.64;49.79;97753.66;5009149;28;20077;-55
2023/04/12 09:04:48;;;;;;;0.98;0.43;;;;;;;13.54;50.46;97754.13;5018776;28;20497;-59
2023/04/12 09:07:15;;;;;;;1.58;0.60;;;;;;;13.46;50.74;97745.84;5019296;28;20041;-54
2023/04/12 09:09:45;;;;;;;0.90;0.30;;;;;;;13.65;49.46;97734.50;5013287;28;20074;-55
2023/04/12 09:12:13;;;;;;;3.28;0.55;;;;;;;13.87;49.46;97745.47;5018557;28;20053;-58
2023/04/12 09:14:43;;;;;;;3.65;0.63;;;;;;;14.09;49.77;97720.88;5017523;28;20444;-54
2023/04/12 09:17:27;;;;;;;2.72;0.50;;;;;;;14.39;50.09;97716.69;5017675;28;20403;-57
2023/04/12 09:19:55;;;;;;;2.20;2.10;;;;;;;14.58;49.31;97721.69;5020046;28;22109;-57
2023/04/12 09:22:43;;;;;;;0.50;0.30;;;;;;;14.78;48.70;97725.78;5017218;28;20136;-59
2023/04/12 09:25:11;;;;;;;2.53;0.60;;;;;;;14.92;48.72;97725.94;5018534;28;20494;-57
2023/04/12 09:30:22;;;;;;;1.38;0.50;;;;;;;14.57;45.56;97706.97;5060673;27;20407;-56
2023/04/12 09:32:49;;;;;;;0.63;0.50;;;;;;;13.98;45.65;97694.59;4999220;28;20050;-54
2023/04/12 09:35:16;;;;;;;2.13;0.65;;;;;;;13.41;47.43;97681.06;5000952;28;21189;-57
2023/04/12 09:37:42;;;;;;;2.28;0.60;;;;;;;13.49;48.15;97688.50;4994554;28;20046;-52
2023/04/12 09:40:09;;;;;;;1.55;0.40;;;;;;;13.64;48.34;97696.44;4991937;28;20046;-53
2023/04/12 09:42:52;;;;;;;0.60;0.57;;;;;;;13.72;46.68;97689.06;4995071;28;20046;-55
2023/04/12 09:45:24;;;;;;;0.60;0.40;;;;;;;13.77;47.12;97692.25;4995354;28;20062;-53
2023/04/12 09:47:52;;;;;;;2.78;0.40;;;;;;;13.51;45.64;97676.25;4992832;28;20148;-55
2023/04/12 09:50:25;;;;;;;3.15;0.63;;;;;;;13.30;47.26;97681.63;4997885;28;20081;-56
2023/04/12 09:52:53;;;;;;;0.85;0.73;;;;;;;13.20;46.97;97672.63;4989849;28;20856;-53
2023/04/12 09:55:22;;;;;;;3.53;0.52;;;;;;;13.16;47.43;97660.72;5011485;28;20045;-54
2023/04/12 09:57:51;;;;;;;1.17;0.50;;;;;;;13.09;46.77;97671.44;5036479;28;20053;-55
2023/04/12 10:00:21;;;;;;;6.03;0.55;;;;;;;13.14;47.33;97657.38;5037986;28;20052;-53
2023/04/12 10:02:50;;;;;;;0.60;0.17;;;;;;;13.06;47.41;97661.19;5032674;28;20573;-58
2023/04/12 10:05:20;;;;;;;2.83;0.60;;;;;;;12.99;47.41;97639.03;5032281;28;20497;-57
2023/04/12 10:07:48;;;;;;;1.50;0.47;;;;;;;12.83;47.39;97634.63;5056371;28;20048;-57
2023/04/12 10:10:17;;;;;;;1.38;0.60;;;;;;;12.47;47.40;97632.97;5026864;28;20045;-56
2023/04/12 10:12:45;;;;;;;1.92;0.57;;;;;;;12.13;48.20;97624.25;5028071;28;20053;-55
2023/04/12 10:15:16;;;;;;;1.30;0.45;;;;;;;11.89;49.10;97603.72;5033817;28;20053;-55
2023/04/12 10:20:22;;;;;;;1.88;1.30;;;;;;;11.36;49.14;97600.94;5062590;27;20398;-55
2023/04/12 10:22:55;;;;;;;4.45;2.05;;;;;;;11.04;49.62;97594.53;5062853;28;20049;-55
2023/04/12 10:25:24;;;;;;;4.63;0.98;;;;;;;10.83;49.80;97590.28;5077111;28;20094;-54
2023/04/12 10:27:51;;;;;;;2.70;1.55;;;;;;;10.76;50.49;97572.44;5075139;28;20051;-56
2023/04/12 10:35:59;;;;;;;2.08;0.20;;;;;;;10.77;50.76;97539.63;5090535;27;20408;-57
2023/04/12 10:38:30;;;;;;;1.48;0.63;;;;;;;10.70;51.02;97544.22;5029094;28;20045;-55
2023/04/12 10:41:17;;;;;;;3.35;0.43;;;;;;;10.48;49.60;97542.59;5049937;28;20055;-56
2023/04/12 10:43:46;;;;;;;2.08;0.57;;;;;;;10.51;51.13;97545.03;5039709;28;20496;-52
2023/04/12 10:49:13;;;;;;;2.00;0.40;;;;;;;10.86;51.78;97528.00;5059662;27;20404;-55
2023/04/12 10:54:38;;;;;;;2.42;1.58;;;;;;;10.66;51.24;97529.75;5067036;27;20407;-55
2023/04/12 10:57:05;;;;;;;5.35;2.58;;;;;;;10.45;50.19;97519.41;5055775;28;20484;-52
2023/04/12 10:59:55;;;;;;;7.18;2.65;;;;;;;10.47;50.79;97504.66;5067587;28;20485;-54
2023/04/12 11:02:22;;;;;;;1.70;1.60;;;;;;;10.31;51.01;97490.66;5046550;28;20087;-53
2023/04/12 11:05:03;;;;;;;2.03;1.83;;;;;;;10.08;50.93;97483.00;5048840;28;20056;-56
2023/04/12 11:07:40;;;;;;;2.05;1.65;;;;;;;10.03;50.91;97478.00;5047521;28;20049;-53
2023/04/12 11:10:16;;;;;;;1.75;1.23;;;;;;;10.14;51.57;97471.53;5050263;28;20049;-56
2023/04/12 11:12:55;;;;;;;2.83;2.55;;;;;;;10.15;50.92;97461.13;5048604;28;20122;-52
2023/04/12 11:15:26;;;;;;;1.88;1.77;;;;;;;10.09;51.12;97450.19;5053033;28;20048;-53
2023/04/12 11:17:56;;;;;;;4.18;1.60;;;;;;;10.19;51.56;97433.38;5059579;28;20048;-53
2023/04/12 11:20:26;;;;;;;2.47;2.13;;;;;;;10.09;50.98;97429.50;5053636;28;20045;-54
2023/04/12 11:22:54;;;;;;;2.13;1.73;;;;;;;10.22;52.08;97425.50;5052998;28;20045;-54
2023/04/12 11:25:20;;;;;;;4.35;2.03;;;;;;;10.21;51.12;97418.66;5064397;28;20052;-51
2023/04/12 11:27:50;;;;;;;6.57;1.25;;;;;;;10.16;50.84;97411.06;5071021;28;20102;-55
2023/04/12 11:30:18;;;;;;;5.45;2.40;;;;;;;10.16;50.92;97425.75;5062310;28;20052;-54
2023/04/12 11:32:46;;;;;;;10.77;2.00;;;;;;;10.05;51.48;97412.44;5073975;28;20071;-56
2023/04/12 11:35:15;;;;;;;3.28;1.67;;;;;;;9.85;52.38;97412.41;5054613;28;20053;-56
2023/04/12 11:37:43;;;;;;;1.85;1.67;;;;;;;9.89;51.65;97428.59;5056529;28;20102;-55
2023/04/12 11:40:10;;;;;;;2.15;1.98;;;;;;;9.85;53.01;97401.19;5049585;28;20045;-57
2023/04/12 11:42:38;;;;;;;1.98;1.85;;;;;;;10.17;53.44;97380.88;5052446;28;20497;-56
2023/04/12 11:45:06;;;;;;;1.75;1.65;;;;;;;10.35;52.80;97380.97;5041877;28;20060;-56
2023/04/12 11:47:43;;;;;;;1.60;1.45;;;;;;;10.35;52.42;97363.69;5064864;28;20045;-49
2023/04/12 11:50:10;;;;;;;2.67;1.88;;;;;;;10.52;54.54;97355.22;5071117;28;20110;-56
2023/04/12 11:52:37;;;;;;;2.47;2.28;;;;;;;10.33;52.66;97349.16;5071593;28;20045;-56
2023/04/12 11:55:07;;;;;;;2.63;2.05;;;;;;;10.28;52.55;97357.97;5067344;28;20105;-52
2023/04/12 11:57:34;;;;;;;4.43;1.77;;;;;;;10.26;52.73;97354.59;5070409;28;20072;-56
2023/04/12 12:00:04;;;;;;;3.67;1.77;;;;;;;10.22;52.85;97360.81;5074253;28;20060;-56
2023/04/12 12:02:33;;;;;;;1.90;0.32;;;;;;;10.17;52.58;97357.63;5075152;28;20450;-55
2023/04/12 12:05:11;;;;;;;5.13;2.38;;;;;;;10.07;53.57;97364.09;5045730;28;20128;-54